createdAt,value
2022-09-07T00:01:23.800Z,4.97
2022-09-07T00:03:56.138Z,6.35
2022-09-07T00:06:26.297Z,7.17
2022-09-07T00:08:54.828Z,6.35
2022-09-07T00:11:23.616Z,5.65
2022-09-07T00:13:52.024Z,4.70
2022-09-07T00:16:23.079Z,4.43
2022-09-07T00:18:52.076Z,5.90
2022-09-07T00:21:20.467Z,6.20
2022-09-07T00:23:51.435Z,5.73
2022-09-07T00:26:21.779Z,6.50
2022-09-07T00:28:50.966Z,8.47
2022-09-07T00:31:21.042Z,7.78
2022-09-07T00:33:50.792Z,6.90
2022-09-07T00:36:20.661Z,8.17
2022-09-07T00:38:51.148Z,7.20
2022-09-07T00:41:21.078Z,16.00
2022-09-07T00:43:51.231Z,8.20
2022-09-07T00:46:21.754Z,6.77
2022-09-07T00:48:54.565Z,9.67
2022-09-07T00:51:28.516Z,8.37
2022-09-07T00:54:02.518Z,10.27
2022-09-07T00:56:36.065Z,8.47
2022-09-07T00:59:05.539Z,7.83
2022-09-07T01:01:35.042Z,8.17
2022-09-07T01:04:04.750Z,8.80
2022-09-07T01:06:36.617Z,10.43
2022-09-07T01:09:10.324Z,7.80
2022-09-07T01:11:39.789Z,10.13
2022-09-07T01:14:10.524Z,10.00
2022-09-07T01:16:58.382Z,8.83
2022-09-07T01:19:50.445Z,11.73
2022-09-07T01:22:40.341Z,8.70
2022-09-07T01:25:12.246Z,7.60
2022-09-07T01:28:04.465Z,10.03
2022-09-07T01:30:36.156Z,11.73
2022-09-07T01:33:23.203Z,10.27
2022-09-07T01:35:59.561Z,12.17
2022-09-07T01:38:32.955Z,8.90
2022-09-07T01:41:05.895Z,11.93
2022-09-07T01:43:43.867Z,8.67
2022-09-07T01:46:17.865Z,8.40
2022-09-07T01:48:47.933Z,9.93
2022-09-07T01:51:20.203Z,9.00
2022-09-07T01:53:52.978Z,9.47
2022-09-07T01:56:27.477Z,11.03
2022-09-07T01:58:59.467Z,8.17
2022-09-07T02:01:33.040Z,7.90
2022-09-07T02:04:06.295Z,8.93
2022-09-07T02:06:40.210Z,10.93
2022-09-07T02:09:14.701Z,11.20
2022-09-07T02:11:46.383Z,8.20
2022-09-07T02:14:20.880Z,10.77
2022-09-07T02:16:56.681Z,8.63
2022-09-07T02:19:28.186Z,11.67
2022-09-07T02:22:01.911Z,7.57
2022-09-07T02:24:37.368Z,8.97
2022-09-07T02:27:12.254Z,10.40
2022-09-07T02:29:43.392Z,7.60
2022-09-07T02:32:11.954Z,10.07
2022-09-07T02:34:40.501Z,10.60
2022-09-07T02:37:11.581Z,10.47
2022-09-07T02:39:40.225Z,9.53
2022-09-07T02:42:08.764Z,9.83
2022-09-07T02:44:40.681Z,10.57
2022-09-07T02:47:27.002Z,9.80
2022-09-07T02:50:16.272Z,10.37
2022-09-07T02:52:56.478Z,12.33
2022-09-07T02:55:35.178Z,7.67
2022-09-07T02:58:15.489Z,7.93
2022-09-07T03:00:52.942Z,5.37
2022-09-07T03:03:28.886Z,8.40
2022-09-07T03:06:02.499Z,8.63
2022-09-07T03:08:37.393Z,9.03
2022-09-07T03:11:06.795Z,8.57
2022-09-07T03:13:35.432Z,11.37
2022-09-07T03:16:04.225Z,8.80
2022-09-07T03:18:34.199Z,12.73
2022-09-07T03:21:02.668Z,10.43
2022-09-07T03:23:31.061Z,10.33
2022-09-07T03:25:59.487Z,8.30
2022-09-07T03:28:27.911Z,8.77
2022-09-07T03:30:56.351Z,8.77
2022-09-07T03:33:24.915Z,7.07
2022-09-07T03:36:01.327Z,8.90
2022-09-07T03:38:31.155Z,13.30
2022-09-07T03:41:01.433Z,10.47
2022-09-07T03:43:31.115Z,10.00
2022-09-07T03:46:00.363Z,9.17
2022-09-07T03:48:29.260Z,6.73
2022-09-07T03:51:00.559Z,9.07
2022-09-07T03:53:31.502Z,11.50
2022-09-07T03:56:01.284Z,10.43
2022-09-07T03:58:32.425Z,7.00
2022-09-07T04:01:02.288Z,15.33
2022-09-07T04:03:30.753Z,8.60
2022-09-07T04:06:02.066Z,8.13
2022-09-07T04:08:32.308Z,7.80
2022-09-07T04:11:01.882Z,7.37
2022-09-07T04:13:31.831Z,9.53
2022-09-07T04:16:02.835Z,10.00
2022-09-07T04:18:31.376Z,9.10
2022-09-07T04:21:01.674Z,5.77
2022-09-07T04:23:30.084Z,9.83
2022-09-07T04:25:58.618Z,8.60
2022-09-07T04:28:27.177Z,8.57
2022-09-07T04:30:55.727Z,11.17
2022-09-07T04:33:24.213Z,6.40
2022-09-07T04:35:52.669Z,7.27
2022-09-07T04:38:22.561Z,15.23
2022-09-07T04:40:51.068Z,9.60
2022-09-07T04:43:19.496Z,7.53
2022-09-07T04:45:48.032Z,7.27
2022-09-07T04:48:16.470Z,6.53
2022-09-07T04:50:44.866Z,7.80
2022-09-07T04:53:13.424Z,6.10
2022-09-07T04:55:43.386Z,4.90
2022-09-07T04:58:11.844Z,7.77
2022-09-07T05:00:40.371Z,4.67
2022-09-07T05:03:08.847Z,7.83
2022-09-07T05:05:39.596Z,5.63
2022-09-07T05:08:08.200Z,7.63
2022-09-07T05:10:36.673Z,6.30
2022-09-07T05:13:06.494Z,8.43
2022-09-07T05:15:35.006Z,8.20
2022-09-07T05:18:03.733Z,5.87
2022-09-07T05:20:32.666Z,6.57
2022-09-07T05:23:01.270Z,7.83
2022-09-07T05:25:31.487Z,8.17
2022-09-07T05:28:00.212Z,9.30
2022-09-07T05:33:22.437Z,7.67
2022-09-07T05:36:00.963Z,9.30
2022-09-07T05:38:30.242Z,9.13
2022-09-07T05:41:00.584Z,9.45
2022-09-07T05:43:29.398Z,7.20
2022-09-07T05:45:59.691Z,9.40
2022-09-07T05:48:38.807Z,9.95
2022-09-07T05:51:08.785Z,6.55
2022-09-07T05:53:41.204Z,10.23
2022-09-07T05:56:10.282Z,7.03
2022-09-07T05:58:42.361Z,7.07
2022-09-07T06:01:14.354Z,7.80
2022-09-07T06:03:44.654Z,8.50
2022-09-07T06:06:15.965Z,5.35
2022-09-07T06:08:47.469Z,6.20
2022-09-07T06:11:17.825Z,6.43
2022-09-07T06:13:47.147Z,6.30
2022-09-07T06:16:20.757Z,10.52
2022-09-07T06:18:50.986Z,6.47
2022-09-07T06:21:26.661Z,5.55
2022-09-07T06:23:59.309Z,8.23
2022-09-07T06:26:27.836Z,7.15
2022-09-07T06:28:58.032Z,8.80
2022-09-07T06:31:29.401Z,6.20
2022-09-07T06:34:00.668Z,9.88
2022-09-07T06:36:30.333Z,6.72
2022-09-07T06:39:02.787Z,8.10
2022-09-07T06:44:21.008Z,6.15
2022-09-07T06:47:06.453Z,10.07
2022-09-07T06:49:36.687Z,9.95
2022-09-07T06:52:08.553Z,5.47
2022-09-07T06:57:27.223Z,10.38
2022-09-07T06:59:55.743Z,4.75
2022-09-07T07:02:25.618Z,5.88
2022-09-07T07:04:54.105Z,9.57
2022-09-07T07:07:22.614Z,5.57
2022-09-07T07:09:52.156Z,6.55
2022-09-07T07:14:47.921Z,7.03
2022-09-07T07:17:16.400Z,9.48
2022-09-07T07:19:47.536Z,6.70
2022-09-07T07:22:43.000Z,8.23
2022-09-07T07:25:04.899Z,9.55
2022-09-07T07:27:33.393Z,8.55
2022-09-07T07:30:01.795Z,8.57
2022-09-07T07:32:33.363Z,5.65
2022-09-07T07:35:04.684Z,5.75
2022-09-07T07:37:33.358Z,6.13
2022-09-07T07:40:19.815Z,7.38
2022-09-07T07:42:50.263Z,8.25
2022-09-07T07:48:07.146Z,6.35
2022-09-07T07:50:36.943Z,7.68
2022-09-07T07:55:53.993Z,6.53
2022-09-07T07:58:22.707Z,8.82
2022-09-07T08:00:54.735Z,6.30
2022-09-07T08:03:24.269Z,8.52
2022-09-07T08:05:54.776Z,8.52
2022-09-07T08:08:24.980Z,9.23
2022-09-07T08:10:53.621Z,9.15
2022-09-07T08:13:22.518Z,9.32
2022-09-07T08:15:51.009Z,6.22
2022-09-07T08:18:19.507Z,11.23
2022-09-07T08:20:48.457Z,6.65
2022-09-07T08:23:20.452Z,5.47
2022-09-07T08:25:52.604Z,6.10
2022-09-07T08:28:21.387Z,8.30
2022-09-07T08:30:49.817Z,5.03
2022-09-07T08:33:18.134Z,9.55
2022-09-07T08:35:56.467Z,10.60
2022-09-07T08:38:26.242Z,5.95
2022-09-07T08:40:55.098Z,8.25
2022-09-07T08:43:49.239Z,8.35
2022-09-07T08:46:34.557Z,8.18
2022-09-07T08:49:04.758Z,5.28
2022-09-07T08:51:37.799Z,6.05
2022-09-07T08:54:07.999Z,8.77
2022-09-07T08:56:39.724Z,8.73
2022-09-07T08:59:17.872Z,6.90
2022-09-07T09:02:27.060Z,6.32
2022-09-07T09:05:16.237Z,5.43
2022-09-07T09:07:35.669Z,6.88
2022-09-07T09:10:17.438Z,6.57
2022-09-07T09:13:06.411Z,5.95
2022-09-07T09:15:53.239Z,5.88
2022-09-07T09:18:51.057Z,7.25
2022-09-07T09:21:20.336Z,5.15
2022-09-07T09:23:52.374Z,5.05
2022-09-07T09:26:26.329Z,5.40
2022-09-07T09:28:55.095Z,7.15
2022-09-07T09:31:27.544Z,6.05
2022-09-07T09:34:12.361Z,7.05
2022-09-07T09:36:52.619Z,5.50
2022-09-07T09:39:33.818Z,5.32
2022-09-07T09:42:20.664Z,6.60
2022-09-07T09:44:49.631Z,6.22
2022-09-07T09:47:31.769Z,4.43
2022-09-07T09:50:04.076Z,5.90
2022-09-07T09:52:47.930Z,5.97
2022-09-07T10:04:02.683Z,11.20
2022-09-07T10:06:33.279Z,4.25
2022-09-07T10:09:03.157Z,6.40
2022-09-07T10:14:36.697Z,4.03
2022-09-07T10:17:13.992Z,4.13
2022-09-07T10:19:44.254Z,4.07
2022-09-07T10:22:29.874Z,6.47
2022-09-07T10:24:58.136Z,6.35
2022-09-07T10:27:34.866Z,6.40
2022-09-07T10:30:11.006Z,5.47
2022-09-07T10:32:56.420Z,5.13
2022-09-07T10:35:29.835Z,4.93
2022-09-07T10:38:17.705Z,7.85
2022-09-07T10:40:51.488Z,4.22
2022-09-07T10:43:30.053Z,5.65
2022-09-07T10:49:27.463Z,6.82
2022-09-07T10:52:10.641Z,7.13
2022-09-07T10:54:48.811Z,8.88
2022-09-07T10:57:40.294Z,4.35
2022-09-07T11:00:13.165Z,5.40
2022-09-07T11:06:04.173Z,7.97
2022-09-07T11:14:30.578Z,4.63
2022-09-07T11:17:01.924Z,6.25
2022-09-07T11:19:37.734Z,4.07
2022-09-07T11:22:17.315Z,3.80
2022-09-07T11:27:45.904Z,5.07
2022-09-07T11:30:23.590Z,5.35
2022-09-07T11:33:04.317Z,4.70
2022-09-07T11:35:46.402Z,6.07
2022-09-07T11:38:22.854Z,8.40
2022-09-07T11:41:00.702Z,4.47
2022-09-07T11:43:32.852Z,7.43
2022-09-07T11:46:06.226Z,4.47
2022-09-07T11:48:39.507Z,5.53
2022-09-07T11:51:14.624Z,5.70
2022-09-07T11:53:46.973Z,4.93
2022-09-07T11:56:19.653Z,8.30
2022-09-07T11:59:11.408Z,6.55
2022-09-07T12:01:50.953Z,8.00
2022-09-07T12:04:31.678Z,5.05
2022-09-07T12:07:21.689Z,7.15
2022-09-07T12:10:04.445Z,5.35
2022-09-07T12:12:53.879Z,5.80
2022-09-07T12:15:33.374Z,5.45
2022-09-07T12:18:14.066Z,9.75
2022-09-07T12:20:44.276Z,8.23
2022-09-07T12:23:29.686Z,4.53
2022-09-07T12:26:39.592Z,4.75
2022-09-07T12:29:22.687Z,5.32
2022-09-07T12:32:08.270Z,6.45
2022-09-07T12:34:53.779Z,3.45
2022-09-07T12:37:43.489Z,6.78
2022-09-07T12:41:01.539Z,3.65
2022-09-07T12:44:08.223Z,4.13
2022-09-07T12:46:55.910Z,3.08
2022-09-07T12:50:10.070Z,4.05
2022-09-07T12:52:50.963Z,3.80
2022-09-07T12:58:57.015Z,3.95
2022-09-07T13:01:36.475Z,3.10
2022-09-07T13:04:29.043Z,4.75
2022-09-07T13:07:30.524Z,3.88
2022-09-07T13:10:00.195Z,5.65
2022-09-07T13:15:43.683Z,5.35
2022-09-07T13:18:28.499Z,9.63
2022-09-07T13:21:30.178Z,3.30
2022-09-07T13:24:46.485Z,5.88
2022-09-07T13:27:46.871Z,4.75
2022-09-07T13:30:48.361Z,5.00
2022-09-07T13:33:47.429Z,6.85
2022-09-07T13:36:25.809Z,3.95
2022-09-07T13:38:55.561Z,7.35
2022-09-07T13:41:26.863Z,6.20
2022-09-07T13:44:01.015Z,4.10
2022-09-07T13:46:48.791Z,5.03
2022-09-07T13:49:33.587Z,4.57
2022-09-07T13:52:08.398Z,4.25
2022-09-07T13:54:51.506Z,5.45
2022-09-07T13:57:26.886Z,4.65
2022-09-07T13:59:56.978Z,3.45
2022-09-07T14:02:29.744Z,2.78
2022-09-07T14:05:00.438Z,4.22
2022-09-07T14:07:30.751Z,4.43
2022-09-07T14:10:07.948Z,8.57
2022-09-07T14:12:43.931Z,8.93
2022-09-07T14:15:23.671Z,3.80
2022-09-07T14:18:06.988Z,3.67
2022-09-07T14:20:41.812Z,4.05
2022-09-07T14:23:21.104Z,4.15
2022-09-07T14:28:39.863Z,7.82
2022-09-07T14:31:12.806Z,5.10
2022-09-07T14:33:47.675Z,3.67
2022-09-07T14:36:39.504Z,5.28
2022-09-07T14:39:06.685Z,4.25
2022-09-07T14:41:38.623Z,5.65
2022-09-07T14:44:07.199Z,4.97
2022-09-07T14:46:35.980Z,7.03
2022-09-07T14:49:18.066Z,4.78
2022-09-07T14:51:48.356Z,3.65
2022-09-07T14:54:21.686Z,5.63
2022-09-07T14:57:02.559Z,8.55
2022-09-07T14:59:40.984Z,3.85
2022-09-07T15:02:36.023Z,3.95
2022-09-07T15:05:25.872Z,4.90
2022-09-07T15:07:56.950Z,4.60
2022-09-07T15:10:32.483Z,2.75
2022-09-07T15:13:02.609Z,3.72
2022-09-07T15:15:33.290Z,4.30
2022-09-07T15:18:08.530Z,4.35
2022-09-07T15:20:41.523Z,5.47
2022-09-07T15:23:14.545Z,3.28
2022-09-07T15:25:49.635Z,5.00
2022-09-07T15:34:11.495Z,3.65
2022-09-07T15:36:42.785Z,3.60
2022-09-07T15:39:18.294Z,5.47
2022-09-07T15:41:47.045Z,3.28
2022-09-07T15:44:16.163Z,3.90
2022-09-07T15:47:42.372Z,3.80
2022-09-07T15:49:33.119Z,4.05
2022-09-07T15:52:06.447Z,9.82
2022-09-07T15:54:37.095Z,5.55
2022-09-07T15:59:56.225Z,6.65
2022-09-07T16:05:12.880Z,3.70
2022-09-07T16:10:31.603Z,3.85
2022-09-07T16:13:01.925Z,5.22
2022-09-07T16:15:31.026Z,3.95
2022-09-07T16:17:59.583Z,5.05
2022-09-07T16:20:31.911Z,9.88
2022-09-07T16:23:17.631Z,77.30
2022-09-07T16:25:57.178Z,73.65
2022-09-07T16:28:25.716Z,66.05
2022-09-07T16:30:54.139Z,60.47
2022-09-07T16:33:27.020Z,39.65
2022-09-07T16:36:02.783Z,38.42
2022-09-07T16:38:48.693Z,46.45
2022-09-07T16:41:20.427Z,26.10
2022-09-07T16:43:48.919Z,16.20
2022-09-07T16:46:19.158Z,14.98
2022-09-07T16:48:47.811Z,17.02
2022-09-07T16:51:19.793Z,18.48
2022-09-07T16:53:50.551Z,23.13
2022-09-07T16:56:20.535Z,14.68
2022-09-07T16:58:51.129Z,19.48
2022-09-07T17:01:21.859Z,23.08
2022-09-07T17:03:50.631Z,100.68
2022-09-07T17:06:20.926Z,147.77
2022-09-07T17:08:50.893Z,175.82
2022-09-07T17:11:20.695Z,125.63
2022-09-07T17:13:49.527Z,101.35
2022-09-07T17:16:20.857Z,83.57
2022-09-07T17:21:40.543Z,33.53
2022-09-07T17:24:11.710Z,30.25
2022-09-07T17:26:42.147Z,30.10
2022-09-07T17:29:13.139Z,22.83
2022-09-07T17:34:30.418Z,17.30
2022-09-07T17:37:00.570Z,21.70
2022-09-07T17:39:31.256Z,13.18
2022-09-07T17:41:59.594Z,12.93
2022-09-07T17:44:32.082Z,19.48
2022-09-07T17:47:04.263Z,18.38
2022-09-07T17:49:32.498Z,14.82
2022-09-07T17:52:01.128Z,13.18
2022-09-07T17:54:30.935Z,13.45
2022-09-07T17:56:59.909Z,10.35
2022-09-07T18:02:16.604Z,11.52
2022-09-07T18:04:45.044Z,8.63
2022-09-07T18:07:13.577Z,17.05
2022-09-07T18:09:43.688Z,8.20
2022-09-07T18:12:11.919Z,13.43
2022-09-07T18:14:40.256Z,11.52
2022-09-07T18:17:08.525Z,12.23
2022-09-07T18:19:38.498Z,12.23
2022-09-07T18:22:08.629Z,13.63
2022-09-07T18:24:37.242Z,14.25
2022-09-07T18:27:07.949Z,12.18
2022-09-07T18:29:36.314Z,10.23
2022-09-07T18:32:09.358Z,13.30
2022-09-07T18:34:38.209Z,7.50
2022-09-07T18:37:07.349Z,11.20
2022-09-07T18:39:36.010Z,7.32
2022-09-07T18:42:04.600Z,8.63
2022-09-07T18:47:28.454Z,10.77
2022-09-07T18:49:57.972Z,9.77
2022-09-07T18:55:14.923Z,8.30
2022-09-07T18:57:43.815Z,9.80
2022-09-07T19:00:14.344Z,8.48
2022-09-07T19:02:42.962Z,10.10
2022-09-07T19:08:03.505Z,6.68
2022-09-07T19:10:35.920Z,10.55
2022-09-07T19:13:04.566Z,8.93
2022-09-07T19:15:37.631Z,11.68
2022-09-07T19:18:07.822Z,8.07
2022-09-07T19:20:36.772Z,9.50
2022-09-07T19:23:05.310Z,8.13
2022-09-07T19:25:33.560Z,9.88
2022-09-07T19:28:01.795Z,8.52
2022-09-07T19:30:30.498Z,18.75
2022-09-07T19:33:04.207Z,11.88
2022-09-07T19:35:36.876Z,8.85
2022-09-07T19:38:05.586Z,11.60
2022-09-07T19:40:34.013Z,9.52
2022-09-07T19:43:02.225Z,8.68
2022-09-07T19:45:30.592Z,13.68
2022-09-07T19:48:00.242Z,11.32
2022-09-07T19:50:28.492Z,13.65
2022-09-07T19:52:56.863Z,14.93
2022-09-07T19:55:25.120Z,10.95
2022-09-07T19:57:53.405Z,13.00
2022-09-07T20:00:22.738Z,12.77
2022-09-07T20:02:51.285Z,10.20
2022-09-07T20:05:21.154Z,12.80
2022-09-07T20:07:49.392Z,10.45
2022-09-07T20:10:17.803Z,12.30
2022-09-07T20:12:46.096Z,10.98
2022-09-07T20:15:14.443Z,10.90
2022-09-07T20:17:42.922Z,10.32
2022-09-07T20:20:11.804Z,10.27
2022-09-07T20:22:41.539Z,10.57
2022-09-07T20:25:13.088Z,12.35
2022-09-07T20:27:41.812Z,12.07
2022-09-07T20:30:11.034Z,11.90
2022-09-07T20:32:39.434Z,8.40
2022-09-07T20:35:08.289Z,11.07
2022-09-07T20:37:36.689Z,12.10
2022-09-07T20:40:07.757Z,9.80
2022-09-07T20:42:36.183Z,11.95
2022-09-07T20:45:04.875Z,11.05
2022-09-07T20:47:33.160Z,12.48
2022-09-07T20:50:01.496Z,14.63
2022-09-07T20:52:29.780Z,9.55
2022-09-07T20:54:58.071Z,13.40
2022-09-07T20:57:27.757Z,13.63
2022-09-07T20:59:56.026Z,12.73
2022-09-07T21:02:24.328Z,10.48
2022-09-07T21:04:52.615Z,15.05
2022-09-07T21:07:20.911Z,13.20
2022-09-07T21:09:49.144Z,13.43
2022-09-07T21:12:17.692Z,10.18
2022-09-07T21:14:47.337Z,12.27
2022-09-07T21:17:15.671Z,14.82
2022-09-07T21:19:43.905Z,15.45
2022-09-07T21:22:12.231Z,12.35
2022-09-07T21:24:40.455Z,11.27
2022-09-07T21:27:08.875Z,10.98
2022-09-07T21:29:37.144Z,12.10
2022-09-07T21:32:06.954Z,16.40
2022-09-07T21:34:35.200Z,11.35
2022-09-07T21:37:03.542Z,15.40
2022-09-07T21:39:31.934Z,11.48
2022-09-07T21:42:00.302Z,13.23
2022-09-07T21:44:28.735Z,13.45
2022-09-07T21:46:57.054Z,12.32
2022-09-07T21:49:27.019Z,19.33
2022-09-07T21:51:55.270Z,12.43
2022-09-07T21:54:23.531Z,13.95
2022-09-07T21:56:53.272Z,10.25
2022-09-07T21:59:21.514Z,13.52
2022-09-07T22:01:50.011Z,11.98
2022-09-07T22:04:18.392Z,13.50
2022-09-07T22:06:48.089Z,10.43
2022-09-07T22:09:16.510Z,12.63
2022-09-07T22:11:46.136Z,13.32
2022-09-07T22:14:16.519Z,15.40
2022-09-07T22:16:44.744Z,15.07
2022-09-07T22:19:13.027Z,13.30
2022-09-07T22:21:41.314Z,13.18
2022-09-07T22:24:15.181Z,13.88
2022-09-07T22:26:43.503Z,13.38
2022-09-07T22:29:13.611Z,14.15
2022-09-07T22:31:42.234Z,13.10
2022-09-07T22:34:11.227Z,17.75
2022-09-07T22:36:42.059Z,12.60
2022-09-07T22:39:13.318Z,14.00
2022-09-07T22:41:42.444Z,15.40
2022-09-07T22:44:14.061Z,13.90
2022-09-07T22:46:43.980Z,13.77
2022-09-07T22:49:13.460Z,15.30
2022-09-07T22:51:41.753Z,18.10
2022-09-07T22:54:11.557Z,19.23
2022-09-07T22:56:40.352Z,18.67
2022-09-07T22:59:10.398Z,20.75
2022-09-07T23:01:39.442Z,18.83
2022-09-07T23:04:08.725Z,15.82
2022-09-07T23:06:38.769Z,17.75
2022-09-07T23:09:09.532Z,15.50
2022-09-07T23:11:40.165Z,16.90
2022-09-07T23:14:12.869Z,15.43
2022-09-07T23:16:41.207Z,17.70
2022-09-07T23:19:10.834Z,22.25
2022-09-07T23:21:40.480Z,20.20
2022-09-07T23:24:08.935Z,16.88
2022-09-07T23:26:38.579Z,18.45
2022-09-07T23:29:07.693Z,16.85
2022-09-07T23:31:37.079Z,19.70
2022-09-07T23:34:05.953Z,15.57
2022-09-07T23:36:34.606Z,20.48
2022-09-07T23:39:02.942Z,20.27
2022-09-07T23:41:31.182Z,15.80
2022-09-07T23:44:00.886Z,21.90
2022-09-07T23:46:29.138Z,15.93
2022-09-07T23:48:57.398Z,20.37
2022-09-07T23:51:25.661Z,20.17
2022-09-07T23:53:54.381Z,15.30
2022-09-07T23:56:24.567Z,14.77
2022-09-07T23:58:53.131Z,18.30
